Aeroporto :
LOGIN :

Iscrizione | Disclaimer

   EN    FR    IT 

 










Sommario :    VFR   VFR Marginale   IFR   IFR Intensivo   IFR Molto Intensivo
Visibilità : 
Base nubi : 
>= 8 km
>= 3000ft
5 / 8 km
1000 / 3000 ft
1500m / 5 km
500 / 1000 ft
800 / 1500m
200 / 500 ft
< 800m
< 200 ft
Simboli :   Temporali  Nebbia  Neve Forte  Precipitazioni Forti  Vento > 20 kt
SIGMETs :   Varie  Temporali  Ghiacco  Turbolenza  Onda orograficha  Ceneri Vulcaniche






- Altitudine del aeroporto : 650 ft
- Codice IATA : ZJI


LSZL - Locarno

ULTIMO METAR :
  • 201450Z AUTO 27006KT 9999NDV R08/1200N R26/P2000D -SHRA FEW020 18/14 Q1010 RMK

METARs OBSOLETI :
  • 201420Z AUTO VRB01KT 9999NDV R08/1200N R26/P2000N FEW097 19/14 Q1010 RMK
  • 201350Z AUTO VRB02KT 9999NDV R08/1100N R26/P2000U FEW100 20/13 Q1010 RMK
  • 201320Z AUTO 04003KT 010V080 9999NDV R08/1100N R26/P2000N FEW095 19/14 Q1011 RMK
  • 201250Z AUTO VRB03KT 9999NDV R08/1200D R26/P2000U -SHRA FEW010 19/13 Q1011 RESHRA RMK
  • 201220Z AUTO 28004KT 230V330 9999NDV R08/1200N R26/P2000N SHRA FEW011 BKN026 17/15 Q1011 RMK
  • 201150Z AUTO VRB02KT 5000NDV R08/1200N R26/P2000D SHRA FEW026 SCT036 19/13 Q1011 RMK
  • 201120Z AUTO 00000KT 9999NDV R08/1300N R26/P2000D NCD 21/13 Q1011 RMK
  • 201050Z AUTO VRB01KT 9999NDV R08/1300N R26/P2000U FEW120 20/13 Q1011 RMK
  • 201020Z AUTO VRB02KT 9999NDV R08/1200N R26/P2000N NCD 20/12 Q1011 RMK

TAF TAF LSZL
Valido dal 20 a 12 ore il 20 a 21 ore UTC


201125Z 2012/2021 VRB02KT 9999 FEW050 SCT120
TEMPO 2012/2021 SHRA SCT050TCU
PROB30
TEMPO 2012/2021 27015G25KT 4000 TSRA SCT040CB



MetMap, La meteo Aeronautica in un colpo d'occhio ! - Copyright ORBIFLY Dicembre 2007 - Disclaimer

ORBIFLY MET'MAP TEAM :

Programmazione e sviluppo : Alexandra Zaïnal
Concezione : Baudouin d'Aumeries
Supporto tecnico e logistico : Manuel Goepfert
Aiuto : Marc-Olivier Méhu
Aiuto per la traduzione : Arnaldo La Scala




FONTI E CREDITI :

   NOAA